Time;durP1;ratioP1;P1;durP2;ratioP2;P2;SDS_P1;SDS_P2;PMS_P1;PMS_P2;Temp;Humidity;BMP_temperature;BMP_pressure;BME280_temperature;BME280_humidity;BME280_pressure;Samples;Min_cycle;Max_cycle;Signal;HPM_P1;HPM_P2
2023/08/24 00:01:04;;;;;;;;;7.00;7.00;;;;;29.06;37.79;100934.06;5082642;28;45230;-64
2023/08/24 00:03:29;;;;;;;;;7.75;6.50;;;;;29.03;37.76;100924.38;5082689;28;45240;-64
2023/08/24 00:05:55;;;;;;;;;8.50;8.00;;;;;29.04;38.06;100925.22;5082774;28;45302;-64
2023/08/24 00:08:20;;;;;;;;;8.75;7.25;;;;;28.99;38.15;100917.53;5081299;28;45320;-64
2023/08/24 00:10:46;;;;;;;;;6.50;5.75;;;;;28.98;37.86;100918.50;5082002;28;52517;-64
2023/08/24 00:13:12;;;;;;;;;6.75;6.50;;;;;29.00;37.85;100921.06;5082321;28;45449;-64
2023/08/24 00:15:39;;;;;;;;;8.25;7.25;;;;;28.99;38.43;100914.81;5082517;28;45318;-64
2023/08/24 00:18:05;;;;;;;;;6.00;6.00;;;;;28.97;37.97;100911.41;5081021;28;45330;-63
2023/08/24 00:20:32;;;;;;;;;8.50;8.00;;;;;28.96;37.99;100896.16;5082204;28;46459;-64
2023/08/24 00:22:58;;;;;;;;;6.00;6.00;;;;;28.95;38.04;100891.72;5080883;28;45350;-64
2023/08/24 00:25:24;;;;;;;;;7.00;7.00;;;;;28.96;38.21;100895.31;5082118;27;45533;-64
2023/08/24 00:27:49;;;;;;;;;9.75;8.25;;;;;28.95;38.08;100899.00;5080563;28;45279;-64
2023/08/24 00:30:15;;;;;;;;;8.00;7.25;;;;;28.92;38.48;100888.44;5082106;28;45188;-63
2023/08/24 00:32:40;;;;;;;;;8.00;7.00;;;;;28.89;38.51;100884.16;5082491;28;45225;-63
2023/08/24 00:35:08;;;;;;;;;8.50;8.00;;;;;28.90;38.01;100885.03;5082162;27;45410;-64
2023/08/24 00:37:34;;;;;;;;;5.25;5.25;;;;;28.88;38.31;100893.31;5080908;28;45528;-64
2023/08/24 00:40:01;;;;;;;;;12.50;7.00;;;;;28.87;38.16;100897.00;5080441;28;47288;-64
2023/08/24 00:42:26;;;;;;;;;7.00;7.00;;;;;28.88;38.29;100897.84;5082175;28;45402;-64
2023/08/24 00:44:52;;;;;;;;;6.50;6.50;;;;;28.83;38.42;100896.41;5081803;28;45334;-64
2023/08/24 00:47:17;;;;;;;;;8.50;6.75;;;;;28.83;38.42;100898.25;5082094;28;45429;-64
2023/08/24 00:49:43;;;;;;;;;10.25;7.50;;;;;28.83;38.16;100901.81;5082002;28;45573;-64
2023/08/24 00:52:10;;;;;;;;;6.25;6.25;;;;;28.82;38.32;100891.16;5081978;28;45315;-64
2023/08/24 00:54:39;;;;;;;;;7.25;6.75;;;;;28.81;38.46;100901.09;5082032;28;45243;-64
2023/08/24 00:57:05;;;;;;;;;8.25;7.75;;;;;28.80;38.25;100912.03;5081730;27;45319;-64
2023/08/24 00:59:31;;;;;;;;;8.00;7.00;;;;;28.78;38.49;100911.31;5079144;28;46046;-64
2023/08/24 01:01:58;;;;;;;;;7.00;6.75;;;;;28.76;38.52;100908.75;5080051;28;45354;-64
2023/08/24 01:04:24;;;;;;;;;11.00;9.75;;;;;28.74;38.49;100910.72;5081670;28;45224;-64
2023/08/24 01:06:50;;;;;;;;;8.50;8.50;;;;;28.72;38.65;100912.72;5081738;27;45374;-64
2023/08/24 01:09:16;;;;;;;;;11.25;9.00;;;;;28.70;38.69;100910.16;5081353;28;45594;-64
2023/08/24 01:12:07;;;;;;;;;11.75;10.25;;;;;28.66;38.75;100907.84;5081451;27;45252;-64
2023/08/24 01:14:39;;;;;;;;;6.50;6.50;;;;;28.65;38.87;100907.00;5080241;28;45408;-64
2023/08/24 01:17:09;;;;;;;;;8.75;8.75;;;;;28.62;39.14;100901.84;5081403;27;45314;-64
2023/08/24 01:19:54;;;;;;;;;7.50;6.75;;;;;28.59;39.09;100906.66;5081389;28;45500;-64
2023/08/24 01:22:27;;;;;;;;;11.25;9.75;;;;;28.59;39.00;100903.94;5081346;28;45311;-65
2023/08/24 01:25:01;;;;;;;;;10.25;8.50;;;;;28.56;38.75;100904.25;5081015;27;45229;-64
2023/08/24 01:27:29;;;;;;;;;6.50;6.50;;;;;28.53;38.82;100899.97;5079906;28;45327;-64
2023/08/24 01:29:56;;;;;;;;;9.50;9.50;;;;;28.53;39.15;100903.50;5080984;28;46293;-64
2023/08/24 01:32:22;;;;;;;;;10.25;9.75;;;;;28.50;38.89;100892.97;5081590;27;45162;-64
2023/08/24 01:34:48;;;;;;;;;8.25;8.00;;;;;28.48;39.49;100886.84;5081278;28;45351;-64
2023/08/24 01:37:13;;;;;;;;;10.50;9.00;;;;;28.45;39.14;100889.84;5079933;28;45334;-64
2023/08/24 01:39:54;;;;;;;;;9.25;7.75;;;;;28.43;39.24;100880.13;5081082;28;46106;-64
2023/08/24 01:42:22;;;;;;;;;11.75;10.50;;;;;28.42;39.23;100883.84;5079864;28;45214;-64
2023/08/24 01:44:56;;;;;;;;;10.00;8.50;;;;;28.41;39.25;100882.97;5080926;27;45224;-64
2023/08/24 01:47:22;;;;;;;;;11.00;11.00;;;;;28.37;39.73;100879.66;5081401;28;45283;-64
2023/08/24 01:49:48;;;;;;;;;10.25;8.00;;;;;28.34;39.41;100874.56;5080641;28;47939;-64
2023/08/24 01:52:14;;;;;;;;;8.00;8.00;;;;;28.31;39.64;100864.00;5079699;28;45854;-64
2023/08/24 01:54:40;;;;;;;;;9.25;7.50;;;;;28.31;39.61;100863.16;5096630;27;45349;-64
2023/08/24 01:57:06;;;;;;;;;7.25;7.25;;;;;28.27;39.76;100859.03;5080682;27;45493;-64
2023/08/24 01:59:31;;;;;;;;;7.75;7.75;;;;;28.25;39.94;100858.28;5080571;28;45333;-64
2023/08/24 02:01:57;;;;;;;;;9.25;8.75;;;;;28.20;39.79;100854.16;5080901;28;45392;-64
2023/08/24 02:04:22;;;;;;;;;8.00;6.25;;;;;28.21;39.74;100857.69;5080812;28;45393;-64
2023/08/24 02:06:48;;;;;;;;;10.00;9.00;;;;;28.15;39.82;100844.72;5079296;28;50545;-64
2023/08/24 02:09:13;;;;;;;;;8.75;8.50;;;;;28.17;39.88;100853.56;5080522;28;45265;-64
2023/08/24 02:11:38;;;;;;;;;11.25;9.75;;;;;28.15;39.94;100844.72;5080319;28;45188;-64
2023/08/24 02:14:04;;;;;;;;;11.00;9.50;;;;;28.12;39.68;100850.41;5080469;28;45366;-64
2023/08/24 02:16:30;;;;;;;;;8.75;8.75;;;;;28.11;39.66;100854.94;5080323;27;47871;-64
2023/08/24 02:18:55;;;;;;;;;7.00;7.00;;;;;28.08;40.46;100851.66;5079238;28;47228;-64
2023/08/24 02:21:20;;;;;;;;;11.00;9.00;;;;;28.05;40.21;100853.63;5080612;28;45243;-64
2023/08/24 02:23:46;;;;;;;;;8.50;8.50;;;;;28.04;40.02;100849.22;5080459;27;45271;-64
2023/08/24 02:26:12;;;;;;;;;8.75;7.50;;;;;28.01;40.32;100840.50;5080605;28;45228;-64
2023/08/24 02:28:38;;;;;;;;;10.00;10.00;;;;;27.99;40.39;100839.78;5079931;28;45256;-64
2023/08/24 02:31:04;;;;;;;;;7.75;7.75;;;;;27.98;40.36;100838.06;5080540;28;45409;-64
2023/08/24 02:33:30;;;;;;;;;9.25;8.25;;;;;27.96;40.35;100829.22;5080336;28;45322;-64
2023/08/24 02:35:56;;;;;;;;;9.25;8.50;;;;;27.92;40.65;100823.25;5078902;27;45461;-64
2023/08/24 02:38:23;;;;;;;;;8.50;7.25;;;;;27.89;40.42;100821.66;5079973;28;46032;-64
2023/08/24 02:40:48;;;;;;;;;11.00;9.00;;;;;27.87;40.45;100820.09;5078741;28;45266;-64
2023/08/24 02:43:13;;;;;;;;;9.75;9.75;;;;;27.88;40.36;100827.22;5079904;28;45530;-64
2023/08/24 02:45:38;;;;;;;;;8.75;7.50;;;;;27.84;40.49;100820.38;5078862;28;45458;-64
2023/08/24 02:48:04;;;;;;;;;9.50;7.75;;;;;27.82;40.49;100816.94;5079648;28;60213;-64
2023/08/24 02:50:30;;;;;;;;;10.25;9.50;;;;;27.82;40.66;100816.94;5080144;28;45170;-64
2023/08/24 02:52:57;;;;;;;;;11.00;11.00;;;;;27.78;40.26;100815.50;5080245;28;45175;-64
2023/08/24 02:55:23;;;;;;;;;10.00;9.00;;;;;27.75;41.06;100808.53;5080009;28;45594;-64
2023/08/24 02:57:49;;;;;;;;;9.00;8.50;;;;;27.73;40.61;100803.25;5079642;28;46213;-64
2023/08/24 03:00:14;;;;;;;;;8.25;8.25;;;;;27.70;40.51;100808.91;5078479;28;45423;-64
2023/08/24 03:02:39;;;;;;;;;9.75;9.00;;;;;27.70;40.58;100806.22;5078573;28;45296;-64
2023/08/24 03:05:05;;;;;;;;;6.00;6.00;;;;;27.68;40.80;100804.63;5079910;27;45318;-64
2023/08/24 03:07:30;;;;;;;;;10.00;9.75;;;;;27.65;40.75;100807.59;5079837;28;45315;-64
2023/08/24 03:09:56;;;;;;;;;8.00;8.00;;;;;27.64;41.08;100792.41;5079628;28;45453;-64
2023/08/24 03:12:21;;;;;;;;;11.25;9.75;;;;;27.60;40.90;100790.91;5078774;28;45428;-64
2023/08/24 03:14:46;;;;;;;;;8.75;8.75;;;;;27.59;40.41;100791.94;5079650;27;45565;-64
2023/08/24 03:17:12;;;;;;;;;10.00;8.75;;;;;27.55;40.55;100778.69;5079715;28;45505;-64
2023/08/24 03:19:37;;;;;;;;;7.25;7.25;;;;;27.55;40.83;100781.38;5078514;28;45395;-64
2023/08/24 03:22:02;;;;;;;;;10.25;9.25;;;;;27.50;40.68;100774.69;5078545;28;45345;-64
2023/08/24 03:24:28;;;;;;;;;10.00;9.00;;;;;27.50;41.30;100780.94;5082195;28;45450;-64
2023/08/24 03:26:53;;;;;;;;;10.25;9.25;;;;;27.47;40.92;100783.91;5082813;27;45269;-64
2023/08/24 03:29:18;;;;;;;;;8.00;8.00;;;;;27.43;40.92;100777.03;5082956;28;54471;-64
2023/08/24 03:31:44;;;;;;;;;10.75;10.75;;;;;27.41;41.21;100773.63;5083429;28;45227;-64
2023/08/24 03:34:09;;;;;;;;;9.00;9.00;;;;;27.38;41.50;100771.16;5083310;28;45492;-64
2023/08/24 03:36:34;;;;;;;;;10.00;8.25;;;;;27.37;40.92;100777.53;5082865;27;46162;-64
2023/08/24 03:38:59;;;;;;;;;11.25;9.50;;;;;27.32;41.35;100777.06;5083398;28;45303;-64
2023/08/24 03:41:25;;;;;;;;;9.25;8.50;;;;;27.31;41.72;100767.25;5083138;28;45214;-64
2023/08/24 03:43:50;;;;;;;;;10.75;9.00;;;;;27.28;41.52;100775.63;5082790;28;45273;-64
2023/08/24 03:46:15;;;;;;;;;8.75;8.75;;;;;27.28;41.22;100775.63;5082597;27;54173;-64
2023/08/24 03:48:41;;;;;;;;;14.75;12.25;;;;;27.25;41.14;100774.03;5082925;28;45347;-64
2023/08/24 03:51:06;;;;;;;;;8.50;8.00;;;;;27.26;41.49;100775.75;5083075;28;45235;-64
2023/08/24 03:53:32;;;;;;;;;11.25;10.25;;;;;27.22;41.68;100768.88;5081540;28;50184;-64
2023/08/24 03:55:57;;;;;;;;;10.25;9.00;;;;;27.20;41.50;100766.31;5082573;27;45463;-64
2023/08/24 03:58:23;;;;;;;;;8.75;8.00;;;;;27.16;41.22;100766.72;5082634;28;45227;-64
2023/08/24 04:00:49;;;;;;;;;9.25;8.00;;;;;27.17;41.87;100766.59;5082682;28;45397;-64
2023/08/24 04:03:14;;;;;;;;;11.00;10.25;;;;;27.16;41.52;100772.97;5082772;28;45358;-64
2023/08/24 04:05:40;;;;;;;;;8.00;8.00;;;;;27.15;41.62;100771.25;5082502;27;45326;-64
2023/08/24 04:08:05;;;;;;;;;12.00;8.50;;;;;27.09;41.55;100761.84;5082786;28;45440;-64
2023/08/24 04:10:31;;;;;;;;;11.75;9.75;;;;;27.10;41.53;100760.00;5082382;28;45314;-64
2023/08/24 04:12:56;;;;;;;;;9.25;9.25;;;;;27.09;41.53;100766.38;5082534;28;45299;-64
2023/08/24 04:15:22;;;;;;;;;10.25;10.25;;;;;27.05;41.16;100764.94;5082472;27;46195;-64
2023/08/24 04:17:48;;;;;;;;;11.25;10.25;;;;;27.06;41.83;100766.66;5082621;28;45424;-64
2023/08/24 04:20:14;;;;;;;;;9.00;8.00;;;;;27.06;41.29;100758.56;5082596;28;45366;-64
2023/08/24 04:22:39;;;;;;;;;10.00;10.00;;;;;27.01;41.54;100758.09;5081044;28;45547;-64
2023/08/24 04:25:05;;;;;;;;;11.25;9.25;;;;;27.01;41.66;100753.53;5081855;27;45312;-64
2023/08/24 04:27:32;;;;;;;;;11.25;9.75;;;;;26.99;41.59;100752.81;5082326;28;45232;-64
2023/08/24 04:29:58;;;;;;;;;10.75;10.75;;;;;26.95;41.29;100743.25;5080988;28;45314;-64
2023/08/24 04:32:23;;;;;;;;;9.00;9.00;;;;;26.92;41.55;100748.94;5082306;28;45568;-64
2023/08/24 04:34:48;;;;;;;;;8.75;8.50;;;;;26.86;42.10;100739.50;5081931;27;45328;-64
2023/08/24 04:37:14;;;;;;;;;9.25;9.25;;;;;26.88;41.47;100747.44;5082265;28;45304;-64
2023/08/24 04:39:39;;;;;;;;;8.50;8.50;;;;;26.84;41.47;100741.47;5082395;28;45333;-64
2023/08/24 04:42:05;;;;;;;;;14.25;12.25;;;;;26.84;41.74;100741.47;5082229;28;45317;-64
2023/08/24 04:44:31;;;;;;;;;9.00;9.00;;;;;26.82;41.98;100745.25;5081958;28;46140;-64
2023/08/24 04:46:56;;;;;;;;;9.50;9.50;;;;;26.77;41.43;100743.81;5081951;27;45586;-64
2023/08/24 04:49:22;;;;;;;;;11.00;10.00;;;;;26.76;41.62;100744.78;5082224;28;45327;-64
2023/08/24 04:51:47;;;;;;;;;13.50;11.25;;;;;26.75;41.75;100743.09;5081458;28;55822;-64
2023/08/24 04:54:12;;;;;;;;;9.25;9.00;;;;;26.73;41.94;100736.09;5081971;28;45411;-64
2023/08/24 04:56:38;;;;;;;;;13.25;11.75;;;;;26.70;41.49;100734.47;5081787;28;45362;-64
2023/08/24 04:59:03;;;;;;;;;13.50;11.75;;;;;26.69;41.84;100726.53;5081761;28;45286;-64
2023/08/24 05:01:32;;;;;;;;;13.00;12.00;;;;;26.67;41.64;100733.91;5063656;28;45281;-64
2023/08/24 05:03:58;;;;;;;;;13.50;11.25;;;;;26.63;42.37;100736.00;5081626;28;45417;-64
2023/08/24 05:06:23;;;;;;;;;9.00;7.75;;;;;26.63;41.61;100732.44;5081598;27;45353;-64
2023/08/24 05:08:49;;;;;;;;;10.75;10.75;;;;;26.58;41.63;100727.44;5080414;28;45310;-64
2023/08/24 05:11:17;;;;;;;;;12.25;11.50;;;;;26.57;41.85;100733.81;5081609;28;45412;-64
2023/08/24 05:13:43;;;;;;;;;9.75;9.75;;;;;26.55;41.97;100742.03;5081433;28;45300;-64
2023/08/24 05:16:13;;;;;;;;;11.75;11.75;;;;;26.54;42.30;100742.13;5081521;27;45304;-64
2023/08/24 05:18:39;;;;;;;;;10.75;10.50;;;;;26.52;42.17;100734.16;5081796;28;45314;-64
2023/08/24 05:21:05;;;;;;;;;11.25;11.25;;;;;26.49;41.90;100731.75;5081450;28;45549;-64
2023/08/24 05:23:32;;;;;;;;;9.75;8.50;;;;;26.48;41.82;100730.03;5079813;28;48768;-64
2023/08/24 05:25:58;;;;;;;;;13.75;12.75;;;;;26.46;42.42;100740.06;5081330;27;45455;-64
2023/08/24 05:28:25;;;;;;;;;14.75;11.00;;;;;26.45;41.95;100741.03;5080910;27;45188;-64
2023/08/24 05:30:54;;;;;;;;;8.75;8.25;;;;;26.45;41.87;100743.72;5081356;28;45392;-64
2023/08/24 05:33:20;;;;;;;;;8.50;8.50;;;;;26.45;41.96;100746.41;5081049;28;46387;-64
2023/08/24 05:35:46;;;;;;;;;10.75;8.00;;;;;26.42;42.09;100752.06;5079363;28;45283;-64
2023/08/24 05:38:13;;;;;;;;;9.75;9.75;;;;;26.43;42.47;100751.94;5081114;28;45465;-64
2023/08/24 05:40:39;;;;;;;;;11.00;11.00;;;;;26.41;42.06;100742.28;5081078;28;45386;-64
2023/08/24 05:43:04;;;;;;;;;9.75;8.75;;;;;26.41;41.99;100745.84;5080606;28;46817;-64
2023/08/24 05:45:29;;;;;;;;;7.75;7.75;;;;;26.44;42.59;100750.97;5080826;27;45181;-64
2023/08/24 05:47:55;;;;;;;;;12.25;11.25;;;;;26.46;42.50;100741.91;5080626;28;45475;-64
2023/08/24 05:50:20;;;;;;;;;15.25;10.50;;;;;26.47;42.47;100738.25;5081229;28;45461;-64
2023/08/24 05:52:45;;;;;;;;;13.25;12.25;;;;;26.47;42.75;100730.16;5080926;28;45550;-64
2023/08/24 05:55:11;;;;;;;;;14.00;11.50;;;;;26.47;42.41;100725.63;5080790;27;45153;-64
2023/08/24 05:57:36;;;;;;;;;14.50;11.25;;;;;26.47;42.54;100714.84;5080804;28;45248;-64
2023/08/24 06:00:03;;;;;;;;;11.50;10.50;;;;;26.47;42.13;100697.84;5080839;28;45207;-64
2023/08/24 06:02:29;;;;;;;;;15.00;14.00;;;;;26.49;42.67;100694.03;5080527;28;45442;-64
2023/08/24 06:04:54;;;;;;;;;10.50;10.50;;;;;26.48;42.58;100691.44;5080708;27;45312;-64
2023/08/24 06:07:21;;;;;;;;;11.50;10.25;;;;;26.51;42.20;100685.81;5080429;28;47676;-64
2023/08/24 06:09:46;;;;;;;;;8.00;7.00;;;;;26.48;42.87;100686.91;5080909;28;45469;-64
2023/08/24 06:12:12;;;;;;;;;14.50;13.50;;;;;26.52;42.22;100688.38;5079891;28;54936;-64
2023/08/24 06:14:37;;;;;;;;;11.50;10.75;;;;;26.54;42.23;100699.00;5080445;28;45265;-64
2023/08/24 06:17:03;;;;;;;;;13.00;13.00;;;;;26.55;42.39;100709.69;5079204;27;45319;-64
2023/08/24 06:19:28;;;;;;;;;11.00;10.50;;;;;26.55;42.27;100711.50;5080660;28;45316;-64
2023/08/24 06:21:54;;;;;;;;;13.75;12.50;;;;;26.58;42.23;100722.88;5078859;28;46733;-64
2023/08/24 06:24:19;;;;;;;;;15.00;11.75;;;;;26.61;42.88;100719.94;5080292;28;45445;-64
2023/08/24 06:26:45;;;;;;;;;11.75;10.00;;;;;26.61;42.02;100714.53;5080269;27;45279;-64
2023/08/24 06:29:10;;;;;;;;;10.50;10.50;;;;;26.65;42.52;100722.38;5080568;28;45215;-64
2023/08/24 06:31:35;;;;;;;;;13.00;11.50;;;;;26.68;43.00;100720.31;5080262;28;52162;-64
2023/08/24 06:34:00;;;;;;;;;11.75;10.75;;;;;26.70;42.16;100718.31;5078869;28;45291;-64
2023/08/24 06:36:26;;;;;;;;;14.50;13.75;;;;;26.75;42.74;100715.28;5079050;27;45419;-64
2023/08/24 06:38:51;;;;;;;;;14.00;12.25;;;;;26.79;42.46;100718.56;5080192;28;46894;-64
2023/08/24 06:41:16;;;;;;;;;12.00;10.50;;;;;26.79;42.55;100716.72;5079848;28;47120;-64
2023/08/24 06:43:42;;;;;;;;;12.00;12.00;;;;;26.84;42.66;100714.53;5080054;28;45169;-64
2023/08/24 06:46:10;;;;;;;;;11.50;10.25;;;;;26.85;42.53;100707.28;5078970;28;45644;-64
2023/08/24 06:48:37;;;;;;;;;13.00;12.00;;;;;26.90;42.49;100702.38;5080456;28;45326;-64
2023/08/24 06:51:02;;;;;;;;;12.00;11.00;;;;;26.95;42.20;100707.38;5079795;28;45606;-64
2023/08/24 06:53:27;;;;;;;;;11.75;11.75;;;;;26.98;42.05;100707.09;5078869;28;46274;-64
2023/08/24 06:55:57;;;;;;;;;12.75;11.25;;;;;27.01;42.36;100698.78;5080039;28;45295;-64
2023/08/24 06:58:22;;;;;;;;;13.00;11.00;;;;;27.01;42.35;100691.53;5078630;28;45416;-64
2023/08/24 07:00:50;;;;;;;;;10.75;9.75;;;;;27.05;42.45;100692.97;5079632;28;45606;-64
2023/08/24 07:03:16;;;;;;;;;13.00;11.75;;;;;27.10;42.51;100687.19;5080113;28;45418;-64
2023/08/24 07:05:41;;;;;;;;;13.00;12.00;;;;;27.10;42.32;100692.59;5078382;28;45336;-64
2023/08/24 07:08:06;;;;;;;;;13.25;11.25;;;;;27.14;42.51;100693.19;5078530;28;45599;-64
2023/08/24 07:10:32;;;;;;;;;12.75;11.75;;;;;27.15;42.49;100698.44;5079424;28;45310;-64
2023/08/24 07:12:58;;;;;;;;;12.50;10.50;;;;;27.16;42.40;100694.75;5079690;28;45381;-64
2023/08/24 07:15:23;;;;;;;;;12.00;12.00;;;;;27.19;42.41;100697.19;5079780;27;45291;-64
2023/08/24 07:17:48;;;;;;;;;13.50;13.00;;;;;27.22;42.25;100696.94;5079932;28;45175;-64
2023/08/24 07:20:14;;;;;;;;;14.00;14.00;;;;;27.27;42.54;100709.16;5079663;28;46543;-64
2023/08/24 07:22:39;;;;;;;;;15.00;13.25;;;;;27.32;42.24;100709.63;5079788;28;45247;-64
2023/08/24 07:25:06;;;;;;;;;9.75;8.25;;;;;27.36;42.43;100711.09;5079324;28;45468;-64
2023/08/24 07:27:32;;;;;;;;;11.00;11.00;;;;;27.39;42.47;100710.81;5078093;28;45330;-64
2023/08/24 07:29:57;;;;;;;;;14.75;12.00;;;;;27.42;42.61;100702.47;5079326;28;46206;-64
2023/08/24 07:32:23;;;;;;;;;11.50;10.75;;;;;27.39;42.30;100679.31;5078246;28;46491;-64
2023/08/24 07:34:49;;;;;;;;;13.25;11.50;;;;;27.50;42.14;100685.66;5079531;28;45340;-64
2023/08/24 07:37:14;;;;;;;;;14.00;11.75;;;;;27.54;41.80;100677.13;5079591;28;45317;-64
2023/08/24 07:39:39;;;;;;;;;10.75;10.75;;;;;27.60;42.33;100669.47;5079407;28;45329;-64
2023/08/24 07:42:05;;;;;;;;;11.00;11.00;;;;;27.67;42.56;100665.25;5077989;28;45944;-64
2023/08/24 07:44:30;;;;;;;;;12.00;11.00;;;;;27.71;42.52;100653.19;5079360;28;45339;-64
2023/08/24 07:46:56;;;;;;;;;10.00;10.00;;;;;27.79;42.53;100656.09;5079328;27;45672;-64
2023/08/24 07:49:21;;;;;;;;;12.50;12.00;;;;;27.85;42.47;100658.25;5077880;28;46974;-64
2023/08/24 07:51:47;;;;;;;;;12.25;11.00;;;;;27.93;42.29;100668.34;5079296;28;45472;-64
2023/08/24 07:54:12;;;;;;;;;10.50;10.00;;;;;28.00;42.07;100655.16;5079582;28;45435;-64
2023/08/24 07:56:38;;;;;;;;;10.00;9.00;;;;;28.05;42.50;100651.09;5078977;27;45524;-65
2023/08/24 07:59:03;;;;;;;;;12.00;10.50;;;;;28.12;42.13;100647.84;5077421;28;49628;-64
2023/08/24 08:01:28;;;;;;;;;11.00;11.00;;;;;28.20;42.26;100643.47;5079045;28;45264;-64
2023/08/24 08:03:54;;;;;;;;;13.50;11.50;;;;;28.26;41.56;100652.84;5079258;28;45179;-64
2023/08/24 08:06:21;;;;;;;;;10.00;10.00;;;;;28.29;42.05;100649.00;5079105;28;45203;-64
2023/08/24 08:08:47;;;;;;;;;10.75;9.50;;;;;28.35;41.97;100659.25;5077622;28;47143;-64
2023/08/24 08:11:12;;;;;;;;;10.25;10.00;;;;;28.40;41.99;100654.28;5082288;28;45215;-64
2023/08/24 08:13:37;;;;;;;;;10.75;9.75;;;;;28.43;41.96;100642.34;5082517;28;45401;-64
2023/08/24 08:16:04;;;;;;;;;14.50;12.25;;;;;28.49;41.92;100642.66;5080989;27;45301;-64
2023/08/24 08:18:32;;;;;;;;;10.25;10.00;;;;;28.52;42.22;100636.94;5082496;28;45326;-64
2023/08/24 08:20:57;;;;;;;;;12.50;10.25;;;;;28.56;41.88;100615.91;5081077;28;45940;-65
2023/08/24 08:23:22;;;;;;;;;10.00;9.50;;;;;28.61;42.05;100620.88;5082392;28;45396;-63
2023/08/24 08:25:48;;;;;;;;;11.25;11.25;;;;;28.59;41.78;100615.63;5080965;27;45303;-63
2023/08/24 08:28:13;;;;;;;;;11.25;11.25;;;;;28.66;41.88;100622.16;5081813;28;46243;-63
2023/08/24 08:30:38;;;;;;;;;13.75;12.25;;;;;28.69;41.85;100621.03;5081060;28;45476;-64
2023/08/24 08:33:04;;;;;;;;;12.50;10.75;;;;;28.73;41.62;100633.28;5082358;28;45162;-63
2023/08/24 08:35:30;;;;;;;;;12.00;11.25;;;;;28.79;41.64;100642.66;5080869;27;45495;-63
2023/08/24 08:37:55;;;;;;;;;13.25;11.25;;;;;28.84;41.52;100654.78;5080789;28;46928;-64
2023/08/24 08:40:20;;;;;;;;;9.25;8.50;;;;;28.92;41.47;100659.47;5081925;28;45299;-63
2023/08/24 08:42:46;;;;;;;;;10.75;10.25;;;;;28.96;42.15;100658.16;5082228;28;45302;-63
2023/08/24 08:45:12;;;;;;;;;14.50;11.25;;;;;29.02;41.61;100662.16;5082040;28;45652;-63
2023/08/24 08:47:38;;;;;;;;;9.75;9.75;;;;;29.07;41.59;100667.13;5082021;28;46308;-64
2023/08/24 08:50:04;;;;;;;;;9.75;9.75;;;;;29.14;41.64;100674.50;5082050;28;45357;-64
2023/08/24 08:52:31;;;;;;;;;12.50;11.25;;;;;29.20;41.77;100670.38;5082068;28;45363;-63
2023/08/24 08:54:58;;;;;;;;;10.50;10.25;;;;;29.27;41.87;100670.66;5080452;28;45772;-63
2023/08/24 08:57:25;;;;;;;;;11.50;10.25;;;;;29.34;41.89;100669.94;5081801;28;45447;-63
2023/08/24 08:59:52;;;;;;;;;12.25;10.50;;;;;29.41;42.04;100662.13;5081781;28;45247;-63
2023/08/24 09:02:19;;;;;;;;;14.00;12.25;;;;;29.50;41.86;100660.38;5081866;28;45243;-63
2023/08/24 09:04:44;;;;;;;;;10.00;10.00;;;;;29.54;41.73;100645.53;5068740;28;45560;-63
2023/08/24 09:07:11;;;;;;;;;11.00;11.00;;;;;29.65;41.46;100625.56;5081413;28;46803;-63
2023/08/24 09:09:38;;;;;;;;;12.75;11.25;;;;;29.71;41.57;100606.03;5081799;28;45423;-63
2023/08/24 09:12:06;;;;;;;;;12.00;11.00;;;;;29.78;41.79;100606.25;5081517;28;45485;-63
2023/08/24 09:14:31;;;;;;;;;11.00;11.00;;;;;29.83;41.41;100634.56;5081510;28;45234;-63
2023/08/24 09:16:56;;;;;;;;;7.50;5.50;;;;;29.87;41.59;100667.63;5079872;27;47077;-63
2023/08/24 09:19:35;;;;;;;;;10.25;10.00;;;;;29.95;41.42;100680.44;5081766;28;45297;-65
2023/08/24 09:22:02;;;;;;;;;11.25;10.25;;;;;29.99;41.14;100673.75;5078846;28;45467;-64
2023/08/24 09:24:32;;;;;;;;;12.00;10.50;;;;;30.04;41.53;100679.56;5081204;28;45492;-64
2023/08/24 09:26:57;;;;;;;;;11.25;10.00;;;;;30.08;41.39;100672.84;5080900;28;45310;-64
2023/08/24 09:29:23;;;;;;;;;15.25;12.00;;;;;30.12;41.07;100663.38;5081096;28;45301;-64
2023/08/24 09:31:50;;;;;;;;;11.50;10.25;;;;;30.18;40.88;100670.06;5081442;28;45144;-64
2023/08/24 09:34:20;;;;;;;;;15.25;12.25;;;;;30.25;41.13;100667.59;5081352;28;45429;-64
2023/08/24 09:36:45;;;;;;;;;11.50;10.75;;;;;30.31;40.68;100681.41;5079683;28;47231;-63
2023/08/24 09:39:11;;;;;;;;;10.75;9.50;;;;;30.41;41.20;100696.75;5081103;28;45184;-64
2023/08/24 09:41:40;;;;;;;;;11.50;11.25;;;;;30.49;40.55;100702.31;5079777;28;45465;-64
2023/08/24 09:44:06;;;;;;;;;10.00;10.00;;;;;30.54;41.13;100704.53;5079611;28;45366;-63
2023/08/24 09:46:32;;;;;;;;;15.00;12.00;;;;;30.64;40.92;100708.03;5079421;27;48190;-63
2023/08/24 09:49:00;;;;;;;;;11.25;11.00;;;;;30.72;40.88;100713.53;5080852;28;45445;-64
2023/08/24 09:51:26;;;;;;;;;12.50;9.50;;;;;30.82;41.03;100707.16;5079723;28;45312;-64
2023/08/24 09:53:57;;;;;;;;;10.25;9.00;;;;;30.85;40.94;100688.72;5080888;28;45473;-64
2023/08/24 09:56:25;;;;;;;;;13.25;12.00;;;;;30.93;40.58;100693.38;5080622;27;46399;-64
2023/08/24 09:58:54;;;;;;;;;11.75;9.50;;;;;31.02;40.84;100700.59;5080562;28;45240;-64
2023/08/24 10:01:21;;;;;;;;;12.25;10.25;;;;;31.10;40.64;100699.84;5080647;28;45363;-63
2023/08/24 10:03:52;;;;;;;;;13.50;11.50;;;;;31.09;40.63;100699.00;5081607;27;45612;-64
2023/08/24 10:06:20;;;;;;;;;8.50;8.50;;;;;31.18;40.62;100694.44;5079117;27;47374;-64
2023/08/24 10:08:50;;;;;;;;;10.25;9.50;;;;;31.21;40.45;100696.88;5080544;28;45426;-64
2023/08/24 10:11:22;;;;;;;;;13.75;11.25;;;;;31.23;39.99;100705.72;5066253;28;45287;-64
2023/08/24 10:14:06;;;;;;;;;11.25;11.25;;;;;31.22;40.56;100717.56;5080181;28;45442;-64
2023/08/24 10:16:34;;;;;;;;;12.00;12.00;;;;;31.25;40.31;100716.41;5080289;27;46212;-64
2023/08/24 10:18:59;;;;;;;;;10.75;10.00;;;;;31.23;40.19;100702.13;5079101;28;45329;-64
2023/08/24 10:21:28;;;;;;;;;12.75;10.25;;;;;31.23;40.40;100696.69;5079142;28;45244;-64
2023/08/24 10:23:56;;;;;;;;;12.25;12.00;;;;;31.22;40.24;100703.13;5078927;28;45281;-64
2023/08/24 10:26:23;;;;;;;;;12.25;10.75;;;;;31.20;39.86;100688.91;5078742;27;47397;-63
2023/08/24 10:28:50;;;;;;;;;10.00;8.75;;;;;31.17;40.38;100695.50;5078815;28;45371;-64
2023/08/24 10:31:15;;;;;;;;;13.00;13.00;;;;;31.15;40.12;100708.34;5080398;28;45178;-64
2023/08/24 10:33:44;;;;;;;;;10.50;10.00;;;;;31.14;40.27;100706.63;5080191;28;45303;-64
2023/08/24 10:36:09;;;;;;;;;13.50;13.50;;;;;31.11;40.04;100701.53;5080317;28;45954;-64
2023/08/24 10:38:42;;;;;;;;;11.00;11.00;;;;;31.11;40.31;100696.97;5080160;28;45326;-64
2023/08/24 10:41:07;;;;;;;;;13.50;12.50;;;;;31.10;39.93;100700.66;5080102;28;45302;-64
2023/08/24 10:43:41;;;;;;;;;10.75;10.75;;;;;31.08;40.03;100708.13;5078356;28;45587;-64
2023/08/24 10:46:14;;;;;;;;;10.75;10.75;;;;;31.07;40.08;100725.41;5078691;28;47305;-63
2023/08/24 10:48:44;;;;;;;;;10.00;10.00;;;;;31.08;40.07;100726.25;5080001;28;45350;-63
2023/08/24 10:51:28;;;;;;;;;13.25;12.00;;;;;31.06;40.55;100733.69;5078735;28;45434;-64
2023/08/24 10:53:55;;;;;;;;;12.50;11.75;;;;;31.02;40.09;100741.28;5079957;28;45374;-64
2023/08/24 10:56:24;;;;;;;;;9.50;9.50;;;;;31.03;39.72;100761.97;5079633;28;45531;-64
2023/08/24 10:59:11;;;;;;;;;12.00;12.00;;;;;31.00;40.00;100756.84;5079675;28;45249;-64
2023/08/24 11:01:42;;;;;;;;;11.50;11.25;;;;;30.98;39.49;100766.16;5078605;28;45280;-64
2023/08/24 11:04:11;;;;;;;;;10.75;10.75;;;;;30.96;39.78;100769.03;5079590;28;45348;-63
2023/08/24 11:06:52;;;;;;;;;12.25;11.75;;;;;30.92;39.95;100775.78;5079913;27;46260;-64
2023/08/24 11:09:18;;;;;;;;;10.50;10.50;;;;;30.83;39.88;100747.72;5078297;28;45521;-64
2023/08/24 11:11:56;;;;;;;;;12.25;12.25;;;;;30.83;39.73;100766.72;5080007;28;45399;-64
2023/08/24 11:14:25;;;;;;;;;11.50;11.00;;;;;30.77;39.42;100776.28;5079654;28;45245;-63